createdAt,value
2022-08-16T00:01:06.583Z,28.45
2022-08-16T00:03:54.361Z,30.55
2022-08-16T00:06:40.249Z,27.95
2022-08-16T00:09:26.360Z,26.55
2022-08-16T00:12:17.967Z,31.42
2022-08-16T00:15:11.614Z,26.63
2022-08-16T00:17:57.587Z,23.25
2022-08-16T00:20:46.505Z,28.42
2022-08-16T00:23:34.789Z,31.15
2022-08-16T00:26:34.964Z,28.85
2022-08-16T00:29:24.520Z,29.48
2022-08-16T00:32:18.062Z,31.88
2022-08-16T00:35:12.795Z,28.10
2022-08-16T00:38:38.319Z,29.67
2022-08-16T00:41:11.449Z,29.85
2022-08-16T00:44:00.069Z,31.48
2022-08-16T00:47:06.311Z,28.65
2022-08-16T00:49:56.520Z,27.88
2022-08-16T00:52:48.002Z,29.48
2022-08-16T00:55:41.737Z,28.20
2022-08-16T00:58:34.299Z,30.98
2022-08-16T01:01:21.910Z,32.75
2022-08-16T01:04:25.489Z,33.10
2022-08-16T01:07:17.691Z,26.73
2022-08-16T01:10:04.750Z,31.75
2022-08-16T01:13:15.068Z,30.27
2022-08-16T01:16:10.256Z,28.77
2022-08-16T01:19:15.409Z,30.92
2022-08-16T01:22:48.346Z,30.25
2022-08-16T01:25:33.919Z,30.80
2022-08-16T01:28:21.787Z,26.77
2022-08-16T01:31:18.643Z,27.50
2022-08-16T01:34:04.857Z,28.95
2022-08-16T01:37:09.016Z,28.48
2022-08-16T01:39:55.246Z,31.38
2022-08-16T01:42:42.467Z,28.80
2022-08-16T01:45:40.809Z,29.20
2022-08-16T01:48:31.497Z,30.67
2022-08-16T01:51:20.250Z,34.38
2022-08-16T01:54:08.904Z,35.03
2022-08-16T01:57:05.682Z,33.38
2022-08-16T01:59:54.684Z,31.55
2022-08-16T02:02:42.820Z,32.03
2022-08-16T02:05:30.564Z,30.45
2022-08-16T02:08:33.331Z,32.20
2022-08-16T02:11:20.736Z,27.75
2022-08-16T02:14:18.150Z,31.80
2022-08-16T02:17:08.101Z,32.63
2022-08-16T02:19:59.481Z,28.23
2022-08-16T02:22:46.983Z,30.57
2022-08-16T02:25:50.472Z,31.27
2022-08-16T02:28:38.492Z,28.88
2022-08-16T02:32:03.398Z,27.77
2022-08-16T02:34:40.919Z,30.35
2022-08-16T02:37:51.166Z,29.60
2022-08-16T02:40:33.717Z,27.20
2022-08-16T02:43:20.526Z,29.63
2022-08-16T02:46:13.052Z,32.15
2022-08-16T02:49:02.112Z,27.23
2022-08-16T02:51:48.627Z,30.70
2022-08-16T02:54:36.742Z,27.58
2022-08-16T02:57:24.076Z,25.85
2022-08-16T03:00:34.046Z,28.73
2022-08-16T03:03:18.903Z,28.27
2022-08-16T03:06:04.567Z,29.95
2022-08-16T03:09:16.313Z,36.00
2022-08-16T03:12:07.582Z,29.50
2022-08-16T03:14:54.077Z,29.80
2022-08-16T03:17:53.148Z,29.73
2022-08-16T03:20:40.877Z,25.77
2022-08-16T03:23:28.221Z,29.63
2022-08-16T03:26:22.286Z,29.02
2022-08-16T03:29:12.142Z,29.20
2022-08-16T03:32:01.118Z,33.50
2022-08-16T03:34:49.855Z,33.80
2022-08-16T03:38:01.634Z,29.33
2022-08-16T03:40:47.397Z,31.17
2022-08-16T03:43:51.255Z,35.70
2022-08-16T03:46:48.117Z,33.13
2022-08-16T03:49:51.574Z,32.90
2022-08-16T03:52:39.159Z,32.25
2022-08-16T03:55:45.364Z,33.10
2022-08-16T03:58:32.502Z,37.65
2022-08-16T04:01:21.213Z,36.03
2022-08-16T04:04:07.820Z,32.85
2022-08-16T04:06:54.859Z,33.22
2022-08-16T04:09:43.083Z,33.85
2022-08-16T04:12:54.565Z,35.88
2022-08-16T04:15:34.572Z,33.83
2022-08-16T04:18:42.725Z,34.08
2022-08-16T04:21:34.833Z,34.73
2022-08-16T04:24:21.717Z,34.05
2022-08-16T04:27:14.895Z,37.50
2022-08-16T04:30:11.082Z,43.38
2022-08-16T04:33:04.409Z,36.72
2022-08-16T04:35:56.315Z,35.67
2022-08-16T04:38:43.583Z,35.08
2022-08-16T04:41:37.280Z,37.42
2022-08-16T04:44:33.173Z,35.75
2022-08-16T04:47:35.837Z,42.15
2022-08-16T04:50:29.751Z,37.42
2022-08-16T04:53:19.230Z,35.88
2022-08-16T04:56:11.654Z,36.47
2022-08-16T04:58:58.585Z,38.78
2022-08-16T05:01:58.905Z,36.22
2022-08-16T05:04:45.065Z,37.15
2022-08-16T05:07:31.492Z,35.40
2022-08-16T05:10:22.806Z,42.75
2022-08-16T05:13:09.586Z,38.38
2022-08-16T05:16:01.663Z,41.90
2022-08-16T05:18:49.165Z,42.33
2022-08-16T05:21:38.448Z,51.97
2022-08-16T05:24:26.382Z,44.78
2022-08-16T05:27:12.729Z,44.13
2022-08-16T05:30:04.856Z,45.67
2022-08-16T05:33:05.779Z,47.83
2022-08-16T05:35:55.992Z,42.05
2022-08-16T05:38:56.695Z,52.20
2022-08-16T05:41:45.991Z,49.35
2022-08-16T05:44:33.364Z,49.05
2022-08-16T05:47:20.168Z,49.22
2022-08-16T05:50:08.277Z,42.33
2022-08-16T05:53:06.741Z,42.05
2022-08-16T05:56:00.553Z,45.25
2022-08-16T05:58:46.220Z,44.30
2022-08-16T06:01:38.932Z,47.67
2022-08-16T06:04:35.425Z,44.60
2022-08-16T06:07:26.575Z,44.92
2022-08-16T06:10:32.351Z,48.00
2022-08-16T06:13:21.634Z,53.58
2022-08-16T06:16:07.718Z,43.50
2022-08-16T06:18:57.316Z,41.47
2022-08-16T06:21:43.131Z,40.42
2022-08-16T06:24:53.843Z,45.20
2022-08-16T06:27:39.497Z,45.78
2022-08-16T06:30:28.921Z,41.70
2022-08-16T06:33:22.238Z,44.90
2022-08-16T06:36:14.157Z,45.35
2022-08-16T06:39:06.282Z,43.47
2022-08-16T06:42:12.086Z,44.03
2022-08-16T06:45:25.208Z,44.58
2022-08-16T06:48:43.225Z,44.80
2022-08-16T06:51:46.396Z,51.13
2022-08-16T06:54:38.054Z,46.72
2022-08-16T06:57:24.573Z,48.35
2022-08-16T07:00:26.784Z,45.42
2022-08-16T07:03:27.754Z,47.20
2022-08-16T07:06:18.495Z,44.58
2022-08-16T07:09:09.459Z,43.63
2022-08-16T07:12:05.398Z,45.15
2022-08-16T07:14:56.371Z,46.15
2022-08-16T07:17:46.891Z,50.47
2022-08-16T07:20:46.993Z,46.97
2022-08-16T07:23:37.426Z,46.13
2022-08-16T07:26:27.389Z,48.13
2022-08-16T07:29:16.210Z,43.50
2022-08-16T07:32:02.752Z,39.90
2022-08-16T07:34:50.291Z,46.30
2022-08-16T07:37:40.087Z,38.45
2022-08-16T07:41:01.994Z,45.90
2022-08-16T07:43:52.856Z,42.78
2022-08-16T07:46:40.322Z,39.67
2022-08-16T07:49:38.331Z,38.15
2022-08-16T07:52:41.287Z,37.20
2022-08-16T07:55:27.429Z,43.22
2022-08-16T07:58:18.295Z,37.03
2022-08-16T08:01:10.441Z,39.92
2022-08-16T08:04:11.242Z,36.17
2022-08-16T08:07:01.178Z,39.72
2022-08-16T08:09:55.640Z,35.70
2022-08-16T08:12:43.956Z,37.92
2022-08-16T08:15:34.264Z,36.53
2022-08-16T08:18:29.892Z,37.15
2022-08-16T08:21:26.276Z,35.95
2022-08-16T08:24:15.359Z,35.17
2022-08-16T08:27:03.913Z,38.17
2022-08-16T08:30:48.825Z,40.15
2022-08-16T08:33:00.457Z,39.60
2022-08-16T08:35:57.023Z,37.03
2022-08-16T08:38:47.860Z,38.53
2022-08-16T08:41:37.061Z,36.45
2022-08-16T08:44:28.950Z,39.65
2022-08-16T08:47:17.309Z,37.88
2022-08-16T08:50:05.725Z,38.03
2022-08-16T08:52:52.797Z,34.13
2022-08-16T08:55:38.747Z,34.15
2022-08-16T08:58:24.907Z,39.08
2022-08-16T09:01:56.480Z,32.42
2022-08-16T09:04:47.931Z,32.13
2022-08-16T09:07:54.741Z,34.05
2022-08-16T09:11:02.403Z,32.65
2022-08-16T09:13:50.977Z,30.70
2022-08-16T09:17:01.003Z,30.90
2022-08-16T09:19:45.745Z,33.50
2022-08-16T09:22:31.729Z,33.47
2022-08-16T09:25:23.051Z,27.13
2022-08-16T09:29:13.771Z,27.73
2022-08-16T09:31:35.809Z,22.67
2022-08-16T09:34:27.259Z,25.30
2022-08-16T09:37:18.016Z,21.98
2022-08-16T09:40:32.559Z,27.75
2022-08-16T09:43:53.357Z,23.63
2022-08-16T09:46:48.121Z,26.90
2022-08-16T09:49:37.135Z,23.20
2022-08-16T09:52:22.847Z,25.05
2022-08-16T09:55:12.578Z,20.02
2022-08-16T09:57:59.233Z,22.55
2022-08-16T10:00:45.618Z,23.25
2022-08-16T10:03:31.601Z,20.92
2022-08-16T10:06:19.083Z,22.90
2022-08-16T10:09:10.743Z,17.10
2022-08-16T10:12:19.245Z,20.83
2022-08-16T10:15:08.811Z,22.65
2022-08-16T10:18:56.444Z,18.95
2022-08-16T10:21:15.728Z,19.60
2022-08-16T10:24:02.203Z,20.30
2022-08-16T10:27:00.727Z,15.90
2022-08-16T10:30:00.184Z,16.38
2022-08-16T10:32:47.218Z,18.67
2022-08-16T10:35:33.327Z,22.67
2022-08-16T10:38:27.358Z,23.38
2022-08-16T10:41:15.999Z,20.65
2022-08-16T10:44:02.572Z,22.77
2022-08-16T10:46:49.206Z,20.52
2022-08-16T10:49:36.524Z,19.90
2022-08-16T10:52:24.426Z,21.50
2022-08-16T10:58:18.217Z,29.23
2022-08-16T11:20:41.196Z,21.17
2022-08-16T11:22:54.279Z,41.53
2022-08-16T11:31:54.664Z,21.50
2022-08-16T11:35:05.680Z,22.35
2022-08-16T11:38:23.241Z,19.92
2022-08-16T11:40:58.139Z,16.02
2022-08-16T11:43:43.856Z,22.13
2022-08-16T11:46:45.299Z,17.30
2022-08-16T11:52:21.802Z,16.35
2022-08-16T11:55:10.610Z,17.23
2022-08-16T11:57:57.429Z,21.65
2022-08-16T12:00:51.124Z,25.13
2022-08-16T12:03:41.788Z,21.80
2022-08-16T12:06:30.813Z,26.50
2022-08-16T12:09:19.812Z,24.38
2022-08-16T12:12:06.861Z,27.98
2022-08-16T12:14:59.334Z,28.05
2022-08-16T12:17:46.489Z,28.08
2022-08-16T12:20:36.310Z,28.20
2022-08-16T12:23:21.921Z,26.25
2022-08-16T12:26:10.632Z,26.45
2022-08-16T12:28:56.815Z,30.55
2022-08-16T12:31:59.032Z,26.13
2022-08-16T12:34:52.617Z,26.30
2022-08-16T12:37:41.558Z,24.65
2022-08-16T12:40:32.519Z,25.20
2022-08-16T12:43:23.414Z,20.30
2022-08-16T12:46:10.806Z,18.00
2022-08-16T12:48:59.755Z,20.75
2022-08-16T12:51:59.072Z,19.95
2022-08-16T12:54:46.247Z,19.35
2022-08-16T12:57:41.862Z,17.35
2022-08-16T13:00:33.163Z,14.63
2022-08-16T13:03:21.603Z,18.45
2022-08-16T13:06:08.674Z,17.90
2022-08-16T13:08:56.588Z,19.58
2022-08-16T13:11:52.150Z,19.77
2022-08-16T13:14:42.683Z,18.83
2022-08-16T13:17:30.375Z,19.65
2022-08-16T13:20:18.941Z,19.70
2022-08-16T13:23:11.500Z,20.13
2022-08-16T13:25:58.496Z,18.30
2022-08-16T13:28:46.129Z,16.05
2022-08-16T13:31:33.172Z,15.73
2022-08-16T13:34:19.594Z,13.77
2022-08-16T13:37:05.323Z,19.55
2022-08-16T13:39:52.668Z,14.98
2022-08-16T13:42:41.400Z,13.68
2022-08-16T13:45:36.227Z,15.60
2022-08-16T13:48:25.393Z,14.13
2022-08-16T13:51:18.459Z,14.15
2022-08-16T13:54:06.007Z,16.50
2022-08-16T13:56:51.805Z,18.17
2022-08-16T13:59:41.775Z,20.25
2022-08-16T14:02:27.881Z,19.23
2022-08-16T14:05:14.192Z,20.08
2022-08-16T14:08:05.486Z,20.17
2022-08-16T14:10:52.126Z,14.02
2022-08-16T14:13:37.977Z,18.85
2022-08-16T14:16:34.267Z,15.15
2022-08-16T14:19:22.493Z,16.08
2022-08-16T14:22:15.415Z,15.07
2022-08-16T14:25:16.887Z,15.50
2022-08-16T14:28:04.708Z,13.40
2022-08-16T14:30:55.195Z,14.85
2022-08-16T14:33:41.166Z,15.75
2022-08-16T14:36:29.739Z,17.02
2022-08-16T14:39:15.973Z,16.08
2022-08-16T14:42:13.705Z,18.52
2022-08-16T14:45:01.599Z,17.58
2022-08-16T14:47:49.700Z,19.10
2022-08-16T14:50:35.952Z,19.73
2022-08-16T14:53:23.347Z,19.70
2022-08-16T14:56:08.997Z,19.30
2022-08-16T14:59:03.811Z,18.95
2022-08-16T15:01:57.559Z,24.02
2022-08-16T15:04:48.005Z,20.23
2022-08-16T15:07:35.492Z,20.55
2022-08-16T15:10:24.243Z,19.40
2022-08-16T15:13:11.080Z,20.35
2022-08-16T15:16:02.540Z,18.58
2022-08-16T15:18:49.089Z,21.63
2022-08-16T15:21:35.766Z,23.13
2022-08-16T15:24:22.615Z,21.52
2022-08-16T15:27:10.673Z,20.08
2022-08-16T15:29:58.086Z,19.88
2022-08-16T15:32:45.838Z,16.80
2022-08-16T15:35:33.409Z,19.58
2022-08-16T15:38:54.717Z,24.00
2022-08-16T15:41:52.044Z,21.95
2022-08-16T15:44:51.948Z,20.00
2022-08-16T15:47:39.566Z,18.20
2022-08-16T15:50:26.374Z,21.75
2022-08-16T15:53:15.570Z,24.02
2022-08-16T15:56:02.706Z,22.05
2022-08-16T15:58:51.593Z,22.65
2022-08-16T16:01:41.455Z,19.55
2022-08-16T16:04:28.640Z,22.55
2022-08-16T16:07:14.766Z,22.70
2022-08-16T16:10:04.592Z,23.95
2022-08-16T16:12:55.892Z,24.17
2022-08-16T16:15:50.776Z,23.17
2022-08-16T16:18:38.285Z,28.33
2022-08-16T16:21:25.740Z,29.15
2022-08-16T16:24:23.677Z,26.17
2022-08-16T16:27:10.406Z,26.33
2022-08-16T16:29:58.068Z,22.75
2022-08-16T16:32:47.797Z,23.70
2022-08-16T16:35:36.407Z,22.83
2022-08-16T16:38:22.612Z,24.85
2022-08-16T16:41:09.879Z,24.10
2022-08-16T16:43:57.519Z,28.52
2022-08-16T16:46:43.940Z,26.33
2022-08-16T16:49:29.747Z,25.15
2022-08-16T16:52:31.365Z,30.23
2022-08-16T16:55:23.090Z,26.27
2022-08-16T16:58:35.361Z,24.80
2022-08-16T17:01:35.134Z,23.70
2022-08-16T17:04:32.464Z,21.55
2022-08-16T17:07:24.026Z,21.50
2022-08-16T17:10:10.506Z,21.40
2022-08-16T17:12:56.637Z,18.88
2022-08-16T17:15:43.650Z,17.50
2022-08-16T17:19:14.287Z,17.23
2022-08-16T17:21:37.147Z,19.17
2022-08-16T17:24:33.063Z,18.00
2022-08-16T17:27:32.681Z,17.73
2022-08-16T17:30:44.768Z,18.98
2022-08-16T17:33:37.012Z,17.42
2022-08-16T17:36:40.561Z,19.30
2022-08-16T17:39:58.237Z,20.60
2022-08-16T17:42:47.967Z,19.05
2022-08-16T17:45:34.003Z,18.90
2022-08-16T17:48:19.649Z,19.30
2022-08-16T17:51:06.328Z,18.13
2022-08-16T17:53:52.151Z,17.40
2022-08-16T17:56:38.288Z,17.80
2022-08-16T17:59:24.327Z,14.82
2022-08-16T18:02:42.290Z,18.40
2022-08-16T18:05:17.177Z,19.70
2022-08-16T18:08:02.897Z,20.90
2022-08-16T18:10:50.586Z,20.58
2022-08-16T18:13:35.908Z,21.45
2022-08-16T18:16:21.727Z,19.42
2022-08-16T18:19:07.425Z,18.92
2022-08-16T18:22:15.304Z,21.48
2022-08-16T18:25:03.973Z,20.23
2022-08-16T18:27:49.503Z,17.75
2022-08-16T18:30:35.413Z,17.48
2022-08-16T18:33:23.107Z,24.50
2022-08-16T18:36:20.524Z,21.05
2022-08-16T18:39:07.124Z,24.27
2022-08-16T18:41:52.839Z,21.05
2022-08-16T18:44:40.896Z,21.63
2022-08-16T18:47:26.660Z,18.65
2022-08-16T18:50:12.610Z,21.17
2022-08-16T18:53:00.881Z,22.90
2022-08-16T18:55:47.873Z,24.60
2022-08-16T18:58:34.082Z,26.35
2022-08-16T19:01:19.742Z,26.05
2022-08-16T19:04:05.571Z,27.25
2022-08-16T19:07:11.272Z,25.40
2022-08-16T19:09:57.193Z,23.80
2022-08-16T19:12:43.013Z,24.08
2022-08-16T19:15:29.099Z,26.92
2022-08-16T19:18:15.175Z,24.35
2022-08-16T19:21:00.838Z,25.50
2022-08-16T19:23:46.698Z,24.75
2022-08-16T19:26:34.123Z,22.75
2022-08-16T19:29:20.831Z,26.02
2022-08-16T19:32:24.341Z,25.90
2022-08-16T19:35:10.720Z,22.63
2022-08-16T19:37:56.577Z,24.65
2022-08-16T19:40:42.881Z,21.38
2022-08-16T19:43:29.227Z,22.15
2022-08-16T19:46:15.094Z,22.73
2022-08-16T19:49:00.986Z,25.33
2022-08-16T19:51:47.809Z,24.15
2022-08-16T19:54:35.612Z,25.00
2022-08-16T19:57:26.897Z,24.10
2022-08-16T20:00:15.649Z,27.67
2022-08-16T20:03:01.648Z,27.27
2022-08-16T20:05:50.288Z,26.67
2022-08-16T20:08:36.543Z,24.60
2022-08-16T20:11:25.846Z,29.17
2022-08-16T20:14:19.275Z,27.05
2022-08-16T20:17:11.326Z,26.83
2022-08-16T20:19:56.927Z,26.70
2022-08-16T20:22:53.472Z,25.08
2022-08-16T20:25:49.950Z,24.38
2022-08-16T20:28:53.044Z,23.73
2022-08-16T20:31:40.216Z,28.27
2022-08-16T20:34:26.114Z,26.83
2022-08-16T20:37:12.844Z,24.23
2022-08-16T20:40:27.274Z,27.17
2022-08-16T20:43:08.653Z,28.38
2022-08-16T20:45:54.211Z,29.25
2022-08-16T20:48:41.943Z,26.77
2022-08-16T20:51:28.189Z,26.33
2022-08-16T20:54:14.814Z,30.95
2022-08-16T20:57:00.586Z,27.45
2022-08-16T20:59:50.220Z,29.35
2022-08-16T21:02:37.983Z,27.17
2022-08-16T21:05:27.824Z,32.92
2022-08-16T21:08:51.551Z,30.02
2022-08-16T21:11:24.237Z,30.30
2022-08-16T21:14:11.834Z,32.15
2022-08-16T21:16:57.842Z,26.83
2022-08-16T21:19:45.072Z,29.20
2022-08-16T21:22:30.760Z,29.33
2022-08-16T21:25:16.752Z,29.65
2022-08-16T21:28:39.458Z,31.27
2022-08-16T21:31:17.035Z,29.00
2022-08-16T21:34:02.884Z,34.38
2022-08-16T21:36:49.767Z,31.10
2022-08-16T21:39:35.469Z,33.10
2022-08-16T21:42:21.686Z,29.52
2022-08-16T21:45:12.313Z,30.25
2022-08-16T21:47:57.868Z,27.42
2022-08-16T21:50:44.330Z,30.10
2022-08-16T21:53:30.450Z,28.85
2022-08-16T21:56:17.366Z,29.00
2022-08-16T21:59:10.639Z,29.65
2022-08-16T22:01:56.539Z,37.13
2022-08-16T22:04:42.493Z,30.58
2022-08-16T22:07:28.171Z,28.70
2022-08-16T22:11:06.347Z,27.98
2022-08-16T22:13:23.221Z,28.38
2022-08-16T22:16:09.333Z,27.50
2022-08-16T22:18:55.255Z,30.25
2022-08-16T22:21:41.177Z,28.35
2022-08-16T22:24:27.149Z,32.72
2022-08-16T22:27:12.882Z,28.38
2022-08-16T22:29:58.825Z,30.70
2022-08-16T22:32:44.979Z,29.75
2022-08-16T22:35:30.535Z,30.85
2022-08-16T22:38:56.069Z,28.10
2022-08-16T22:41:22.331Z,29.27
2022-08-16T22:44:08.548Z,27.35
2022-08-16T22:46:54.911Z,32.40
2022-08-16T22:49:40.932Z,29.10
2022-08-16T22:52:52.655Z,27.58
2022-08-16T22:55:35.359Z,29.98
2022-08-16T22:58:21.056Z,28.88
2022-08-16T23:01:24.692Z,28.63
2022-08-16T23:04:10.496Z,28.58
2022-08-16T23:06:57.065Z,28.50
2022-08-16T23:09:42.941Z,30.27
2022-08-16T23:12:29.760Z,33.20
2022-08-16T23:15:17.174Z,35.00
2022-08-16T23:18:03.130Z,32.75
2022-08-16T23:20:49.738Z,32.17
2022-08-16T23:23:35.833Z,31.80
2022-08-16T23:26:44.065Z,30.92
2022-08-16T23:29:27.591Z,31.63
2022-08-16T23:32:14.001Z,30.50
2022-08-16T23:35:03.659Z,28.33
2022-08-16T23:37:50.939Z,29.60
2022-08-16T23:40:38.259Z,35.42
2022-08-16T23:43:27.249Z,33.13
2022-08-16T23:46:16.997Z,32.13
2022-08-16T23:49:56.550Z,36.72
2022-08-16T23:52:09.457Z,33.85
2022-08-16T23:54:55.043Z,33.75
2022-08-16T23:57:41.141Z,37.25
